createdAt,value
2023-03-22T00:01:34.015Z,5.70
2023-03-22T00:04:01.714Z,5.35
2023-03-22T00:06:34.110Z,5.20
2023-03-22T00:09:04.832Z,4.97
2023-03-22T00:11:35.225Z,6.03
2023-03-22T00:14:03.075Z,5.20
2023-03-22T00:16:34.495Z,4.85
2023-03-22T00:19:04.396Z,5.18
2023-03-22T00:21:34.614Z,6.03
2023-03-22T00:24:02.504Z,4.90
2023-03-22T00:26:30.091Z,5.90
2023-03-22T00:28:57.486Z,5.55
2023-03-22T00:31:25.227Z,5.03
2023-03-22T00:33:54.119Z,5.32
2023-03-22T00:36:21.698Z,5.45
2023-03-22T00:38:54.531Z,4.97
2023-03-22T00:41:23.024Z,5.20
2023-03-22T00:43:53.603Z,5.75
2023-03-22T00:46:22.137Z,6.15
2023-03-22T00:48:49.986Z,5.60
2023-03-22T00:54:02.167Z,5.60
2023-03-22T00:56:29.709Z,6.25
2023-03-22T01:01:44.490Z,5.18
2023-03-22T01:04:27.998Z,5.32
2023-03-22T01:07:01.345Z,5.47
2023-03-22T01:09:31.052Z,5.47
2023-03-22T01:12:04.743Z,6.03
2023-03-22T01:14:41.505Z,6.07
2023-03-22T01:17:11.817Z,5.87
2023-03-22T01:19:40.737Z,5.20
2023-03-22T01:22:08.777Z,5.88
2023-03-22T01:24:39.929Z,6.88
2023-03-22T01:27:09.013Z,6.00
2023-03-22T01:29:39.148Z,5.28
2023-03-22T01:32:07.182Z,6.10
2023-03-22T01:34:40.512Z,6.45
2023-03-22T01:37:12.312Z,6.57
2023-03-22T01:39:44.318Z,6.60
2023-03-22T01:42:18.141Z,6.30
2023-03-22T01:45:06.330Z,6.28
2023-03-22T01:47:36.832Z,6.65
2023-03-22T01:50:04.832Z,7.15
2023-03-22T01:52:36.388Z,6.40
2023-03-22T01:55:10.962Z,7.32
2023-03-22T01:57:48.387Z,8.02
2023-03-22T02:00:24.741Z,6.93
2023-03-22T02:03:09.616Z,7.22
2023-03-22T02:05:43.045Z,6.65
2023-03-22T02:08:15.073Z,7.60
2023-03-22T02:11:02.405Z,7.30
2023-03-22T02:13:42.273Z,7.05
2023-03-22T02:16:53.418Z,7.60
2023-03-22T02:19:35.038Z,7.93
2023-03-22T02:22:17.689Z,8.70
2023-03-22T02:25:20.172Z,7.85
2023-03-22T02:27:58.983Z,8.45
2023-03-22T02:30:37.703Z,8.02
2023-03-22T02:33:27.208Z,7.65
2023-03-22T02:36:10.457Z,7.70
2023-03-22T02:39:08.319Z,8.15
2023-03-22T02:41:48.479Z,8.35
2023-03-22T02:44:23.080Z,7.55
2023-03-22T02:46:56.105Z,8.05
2023-03-22T02:49:28.424Z,8.27
2023-03-22T02:51:59.737Z,8.63
2023-03-22T02:54:31.398Z,7.68
2023-03-22T02:57:03.907Z,8.18
2023-03-22T02:59:32.765Z,8.18
2023-03-22T03:02:01.698Z,8.40
2023-03-22T03:04:31.662Z,8.85
2023-03-22T03:07:03.909Z,8.50
2023-03-22T03:09:34.056Z,8.70
2023-03-22T03:12:15.147Z,8.32
2023-03-22T03:14:44.932Z,8.27
2023-03-22T03:17:27.378Z,8.38
2023-03-22T03:20:02.581Z,9.07
2023-03-22T03:22:36.244Z,9.27
2023-03-22T03:25:07.406Z,8.98
2023-03-22T03:27:38.291Z,9.18
2023-03-22T03:30:10.451Z,8.98
2023-03-22T03:32:41.936Z,8.35
2023-03-22T03:35:22.381Z,9.40
2023-03-22T03:37:54.503Z,10.32
2023-03-22T03:40:29.153Z,9.40
2023-03-22T03:43:04.004Z,9.15
2023-03-22T03:45:31.759Z,9.30
2023-03-22T03:48:04.007Z,9.35
2023-03-22T03:50:37.438Z,9.85
2023-03-22T03:53:06.989Z,9.80
2023-03-22T03:55:34.885Z,9.93
2023-03-22T03:58:04.228Z,9.32
2023-03-22T04:00:32.035Z,9.35
2023-03-22T04:03:20.457Z,10.10
2023-03-22T04:06:24.712Z,10.45
2023-03-22T04:08:58.001Z,8.90
2023-03-22T04:11:30.155Z,10.45
2023-03-22T04:14:09.460Z,9.70
2023-03-22T04:16:38.245Z,10.02
2023-03-22T04:19:09.065Z,9.55
2023-03-22T04:21:38.334Z,9.80
2023-03-22T04:24:08.780Z,11.95
2023-03-22T04:26:42.346Z,9.23
2023-03-22T04:29:37.469Z,10.68
2023-03-22T04:32:28.154Z,8.75
2023-03-22T04:34:59.565Z,10.13
2023-03-22T04:37:28.058Z,10.18
2023-03-22T04:40:19.689Z,8.65
2023-03-22T04:42:57.524Z,10.23
2023-03-22T04:45:45.173Z,8.98
2023-03-22T04:48:21.623Z,9.38
2023-03-22T04:50:53.134Z,10.02
2023-03-22T04:53:27.145Z,8.60
2023-03-22T04:55:58.148Z,8.73
2023-03-22T04:58:32.420Z,8.25
2023-03-22T05:01:01.501Z,8.48
2023-03-22T05:03:29.031Z,9.07
2023-03-22T05:08:29.021Z,8.52
2023-03-22T05:10:59.551Z,7.57
2023-03-22T05:13:28.746Z,7.63
2023-03-22T05:15:59.219Z,8.98
2023-03-22T05:18:38.011Z,6.85
2023-03-22T05:21:13.654Z,7.22
2023-03-22T05:23:46.118Z,7.82
2023-03-22T05:26:16.173Z,8.43
2023-03-22T05:28:46.832Z,7.72
2023-03-22T05:31:21.901Z,7.38
2023-03-22T05:34:04.863Z,7.03
2023-03-22T05:36:38.324Z,9.02
2023-03-22T05:39:15.849Z,6.82
2023-03-22T05:41:45.932Z,6.53
2023-03-22T05:44:13.804Z,7.20
2023-03-22T05:46:49.952Z,6.80
2023-03-22T05:49:48.143Z,7.03
2023-03-22T05:52:16.917Z,6.60
2023-03-22T05:54:54.446Z,8.85
2023-03-22T05:57:24.524Z,8.05
2023-03-22T05:59:55.281Z,7.60
2023-03-22T06:02:28.567Z,7.60
2023-03-22T06:04:59.648Z,7.65
2023-03-22T06:07:28.851Z,7.90
2023-03-22T06:10:01.030Z,7.55
2023-03-22T06:12:33.631Z,7.22
2023-03-22T06:15:12.613Z,7.30
2023-03-22T06:18:00.580Z,7.30
2023-03-22T06:20:33.319Z,6.78
2023-03-22T06:23:07.164Z,7.25
2023-03-22T06:25:36.352Z,7.15
2023-03-22T06:28:08.544Z,6.40
2023-03-22T06:30:37.832Z,6.43
2023-03-22T06:36:20.284Z,7.28
2023-03-22T06:39:20.311Z,6.30
2023-03-22T06:41:49.328Z,6.43
2023-03-22T06:44:24.590Z,6.90
2023-03-22T06:46:54.439Z,5.72
2023-03-22T06:49:48.401Z,5.97
2023-03-22T06:52:25.439Z,6.10
2023-03-22T06:54:53.641Z,7.05
2023-03-22T06:59:50.707Z,8.02
2023-03-22T07:02:20.389Z,4.90
2023-03-22T07:05:08.143Z,3.58
2023-03-22T07:07:39.268Z,3.97
2023-03-22T07:10:08.985Z,3.85
2023-03-22T07:12:36.812Z,3.75
2023-03-22T07:15:10.370Z,3.60
2023-03-22T07:17:55.652Z,3.90
2023-03-22T07:22:54.439Z,3.42
2023-03-22T07:25:24.436Z,3.30
2023-03-22T07:28:00.532Z,3.63
2023-03-22T07:30:29.824Z,3.58
2023-03-22T07:32:59.548Z,3.15
2023-03-22T07:35:27.221Z,3.13
2023-03-22T07:38:01.699Z,2.45
2023-03-22T07:40:34.833Z,3.15
2023-03-22T07:43:03.149Z,3.97
2023-03-22T07:46:03.891Z,3.30
2023-03-22T07:48:54.831Z,3.40
2023-03-22T07:51:42.205Z,2.70
2023-03-22T07:54:14.030Z,2.58
2023-03-22T07:56:48.895Z,2.38
2023-03-22T07:59:16.962Z,2.33
2023-03-22T08:01:47.740Z,2.97
2023-03-22T08:04:26.000Z,2.88
2023-03-22T08:06:59.970Z,2.28
2023-03-22T08:09:29.991Z,2.70
2023-03-22T08:11:58.662Z,2.30
2023-03-22T08:14:35.963Z,2.58
2023-03-22T08:17:18.336Z,2.25
2023-03-22T08:19:48.124Z,2.90
2023-03-22T08:22:26.009Z,2.47
2023-03-22T08:25:32.925Z,2.35
2023-03-22T08:28:13.266Z,2.60
2023-03-22T08:30:41.070Z,2.67
2023-03-22T08:33:13.237Z,2.28
2023-03-22T08:35:42.716Z,2.60
2023-03-22T08:38:10.926Z,3.15
2023-03-22T08:40:48.319Z,2.33
2023-03-22T08:43:21.764Z,2.17
2023-03-22T08:45:49.211Z,2.08
2023-03-22T08:48:21.092Z,1.73
2023-03-22T08:51:07.530Z,1.67
2023-03-22T08:53:53.379Z,2.33
2023-03-22T08:56:41.768Z,2.33
2023-03-22T08:59:20.364Z,2.47
2023-03-22T09:02:25.685Z,3.72
2023-03-22T09:04:54.700Z,2.15
2023-03-22T09:07:22.629Z,2.88
2023-03-22T09:10:01.049Z,2.10
2023-03-22T09:15:09.229Z,2.08
2023-03-22T09:17:40.256Z,2.00
2023-03-22T09:20:13.297Z,1.33
2023-03-22T09:22:44.214Z,2.65
2023-03-22T09:25:17.600Z,1.58
2023-03-22T09:27:48.438Z,1.73
2023-03-22T09:30:28.992Z,1.10
2023-03-22T09:32:56.749Z,1.55
2023-03-22T09:35:24.337Z,1.48
2023-03-22T09:37:59.915Z,1.30
2023-03-22T09:40:29.443Z,1.90
2023-03-22T09:43:00.962Z,1.50
2023-03-22T09:45:38.392Z,1.92
2023-03-22T09:48:09.166Z,2.22
2023-03-22T09:50:47.870Z,1.98
2023-03-22T09:53:19.109Z,1.95
2023-03-22T09:55:54.097Z,1.90
2023-03-22T09:58:27.001Z,2.10
2023-03-22T10:00:58.827Z,1.90
2023-03-22T10:03:34.545Z,2.38
2023-03-22T10:06:03.593Z,2.53
2023-03-22T10:08:35.222Z,1.48
2023-03-22T10:11:02.822Z,1.80
2023-03-22T10:13:37.895Z,1.50
2023-03-22T10:16:12.790Z,1.90
2023-03-22T10:18:43.490Z,2.85
2023-03-22T10:21:12.306Z,1.42
2023-03-22T10:23:44.058Z,1.30
2023-03-22T10:26:14.874Z,1.20
2023-03-22T10:28:44.257Z,1.73
2023-03-22T10:31:17.528Z,1.73
2023-03-22T10:33:50.350Z,1.30
2023-03-22T10:36:19.061Z,2.00
2023-03-22T10:38:49.796Z,1.40
2023-03-22T10:41:24.388Z,1.63
2023-03-22T10:43:56.164Z,1.23
2023-03-22T10:46:30.653Z,1.55
2023-03-22T10:48:59.625Z,1.42
2023-03-22T10:51:30.162Z,1.42
2023-03-22T10:54:03.656Z,1.65
2023-03-22T10:56:31.045Z,1.42
2023-03-22T10:58:58.623Z,1.83
2023-03-22T11:01:32.180Z,1.67
2023-03-22T11:04:01.221Z,1.50
2023-03-22T11:06:32.735Z,2.65
2023-03-22T11:09:04.530Z,1.70
2023-03-22T11:11:43.033Z,2.08
2023-03-22T11:14:14.031Z,2.22
2023-03-22T11:16:48.625Z,2.35
2023-03-22T11:19:19.189Z,1.67
2023-03-22T11:21:46.714Z,1.67
2023-03-22T11:24:18.110Z,1.73
2023-03-22T11:27:02.170Z,3.03
2023-03-22T11:29:32.090Z,2.03
2023-03-22T11:32:09.254Z,2.17
2023-03-22T11:34:41.044Z,1.88
2023-03-22T11:37:13.335Z,1.90
2023-03-22T11:39:48.044Z,1.65
2023-03-22T11:42:19.115Z,1.50
2023-03-22T11:44:46.536Z,1.45
2023-03-22T11:47:15.663Z,2.15
2023-03-22T11:49:48.473Z,1.60
2023-03-22T11:52:19.595Z,2.85
2023-03-22T11:54:48.927Z,1.70
2023-03-22T11:57:25.160Z,2.17
2023-03-22T11:59:58.989Z,2.03
2023-03-22T12:02:29.591Z,1.92
2023-03-22T12:05:03.591Z,2.17
2023-03-22T12:07:32.604Z,2.10
2023-03-22T12:10:10.296Z,1.92
2023-03-22T12:15:06.546Z,1.85
2023-03-22T12:17:40.375Z,2.40
2023-03-22T12:20:14.055Z,2.25
2023-03-22T12:22:45.636Z,2.03
2023-03-22T12:25:15.935Z,1.88
2023-03-22T12:27:47.032Z,1.63
2023-03-22T12:30:16.339Z,1.52
2023-03-22T12:32:47.340Z,2.35
2023-03-22T12:35:25.026Z,2.00
2023-03-22T12:37:55.277Z,1.70
2023-03-22T12:40:25.250Z,1.67
2023-03-22T12:43:00.248Z,1.20
2023-03-22T12:45:28.870Z,1.30
2023-03-22T12:48:01.627Z,1.45
2023-03-22T12:50:32.099Z,1.27
2023-03-22T12:52:59.722Z,1.65
2023-03-22T12:55:28.848Z,2.05
2023-03-22T12:57:56.619Z,1.52
2023-03-22T13:00:28.547Z,1.45
2023-03-22T13:02:59.872Z,1.98
2023-03-22T13:05:34.688Z,1.15
2023-03-22T13:08:04.097Z,1.52
2023-03-22T13:11:00.869Z,1.60
2023-03-22T13:13:50.076Z,1.40
2023-03-22T13:16:22.645Z,1.48
2023-03-22T13:19:18.725Z,1.73
2023-03-22T13:21:49.119Z,2.03
2023-03-22T13:24:30.590Z,1.00
2023-03-22T13:26:59.928Z,1.35
2023-03-22T13:29:38.018Z,1.52
2023-03-22T13:32:06.844Z,1.35
2023-03-22T13:34:40.797Z,1.63
2023-03-22T13:37:13.078Z,1.30
2023-03-22T13:39:46.524Z,1.88
2023-03-22T13:42:21.094Z,1.70
2023-03-22T13:44:58.393Z,1.63
2023-03-22T13:47:33.949Z,1.40
2023-03-22T13:50:07.300Z,1.52
2023-03-22T13:52:42.269Z,1.25
2023-03-22T13:55:28.816Z,1.40
2023-03-22T13:58:00.410Z,1.30
2023-03-22T14:00:47.577Z,1.90
2023-03-22T14:03:17.143Z,1.70
2023-03-22T14:05:53.748Z,1.67
2023-03-22T14:08:28.246Z,1.88
2023-03-22T14:11:00.511Z,1.70
2023-03-22T14:13:31.465Z,2.75
2023-03-22T14:16:03.759Z,1.38
2023-03-22T14:18:32.409Z,1.70
2023-03-22T14:21:04.806Z,1.25
